createdAt,value
2019-05-18T00:00:10.597Z,13.70
2019-05-18T00:02:37.996Z,13.60
2019-05-18T00:05:05.744Z,13.60
2019-05-18T00:07:33.221Z,13.60
2019-05-18T00:10:02.487Z,13.60
2019-05-18T00:12:29.954Z,13.60
2019-05-18T00:14:57.321Z,13.50
2019-05-18T00:17:25.621Z,13.60
2019-05-18T00:19:53.155Z,13.50
2019-05-18T00:22:20.521Z,13.50
2019-05-18T00:24:47.944Z,13.40
2019-05-18T00:27:15.420Z,13.40
2019-05-18T00:29:42.795Z,13.40
2019-05-18T00:32:10.263Z,13.40
2019-05-18T00:34:37.641Z,13.30
2019-05-18T00:37:05.019Z,13.30
2019-05-18T00:39:32.501Z,13.30
2019-05-18T00:41:59.836Z,13.30
2019-05-18T00:44:27.206Z,13.30
2019-05-18T00:46:54.619Z,13.30
2019-05-18T00:49:22.022Z,13.30
2019-05-18T00:51:49.311Z,13.30
2019-05-18T00:54:16.738Z,13.20
2019-05-18T00:56:43.997Z,13.20
2019-05-18T00:59:15.888Z,13.20
2019-05-18T01:01:40.661Z,13.20
2019-05-18T01:04:08.079Z,13.20
2019-05-18T01:06:35.367Z,13.30
2019-05-18T01:09:04.650Z,13.20
2019-05-18T01:11:32.028Z,13.20
2019-05-18T01:13:59.417Z,13.20
2019-05-18T01:16:26.731Z,13.10
2019-05-18T01:18:54.178Z,13.10
2019-05-18T01:21:21.597Z,13.10
2019-05-18T01:23:48.974Z,13.00
2019-05-18T01:26:16.604Z,13.00
2019-05-18T01:28:43.968Z,12.90
2019-05-18T01:31:11.361Z,12.90
2019-05-18T01:33:38.835Z,12.90
2019-05-18T01:36:06.226Z,12.90
2019-05-18T01:38:33.623Z,12.90
2019-05-18T01:41:01.065Z,12.80
2019-05-18T01:43:28.382Z,12.80
2019-05-18T01:45:55.677Z,12.80
2019-05-18T01:48:23.122Z,12.80
2019-05-18T01:50:50.471Z,12.80
2019-05-18T01:53:17.935Z,12.80
2019-05-18T01:55:45.523Z,12.70
2019-05-18T01:58:13.011Z,12.70
2019-05-18T02:00:40.420Z,12.70
2019-05-18T02:03:07.773Z,12.80
2019-05-18T02:05:35.149Z,12.70
2019-05-18T02:08:02.583Z,12.80
2019-05-18T02:10:29.932Z,12.80
2019-05-18T02:12:57.348Z,12.80
2019-05-18T02:15:24.713Z,12.70
2019-05-18T02:17:52.010Z,12.70
2019-05-18T02:20:19.379Z,12.70
2019-05-18T02:22:46.785Z,12.70
2019-05-18T02:25:14.931Z,12.70
2019-05-18T02:27:42.315Z,12.70
2019-05-18T02:30:11.043Z,12.70
2019-05-18T02:32:38.638Z,12.70
2019-05-18T02:35:06.114Z,12.80
2019-05-18T02:37:33.489Z,12.80
2019-05-18T02:40:00.885Z,12.70
2019-05-18T02:42:30.836Z,12.70
2019-05-18T02:44:57.688Z,12.70
2019-05-18T02:47:25.183Z,12.60
2019-05-18T02:49:52.859Z,12.60
2019-05-18T02:52:20.243Z,12.70
2019-05-18T02:54:47.660Z,12.70
2019-05-18T02:57:15.175Z,12.70
2019-05-18T02:59:42.634Z,12.70
2019-05-18T03:02:10.046Z,12.70
2019-05-18T03:04:37.439Z,12.70
2019-05-18T03:07:04.789Z,12.70
2019-05-18T03:09:32.249Z,12.80
2019-05-18T03:11:59.653Z,12.90
2019-05-18T03:14:27.068Z,13.00
2019-05-18T03:16:54.448Z,13.30
2019-05-18T03:19:21.809Z,13.70
2019-05-18T03:21:49.159Z,14.10
2019-05-18T03:24:17.320Z,14.30
2019-05-18T03:26:44.625Z,14.30
2019-05-18T03:29:12.257Z,14.30
2019-05-18T03:31:39.674Z,14.20
2019-05-18T03:34:07.074Z,14.10
2019-05-18T03:36:34.558Z,13.90
2019-05-18T03:39:02.033Z,13.70
2019-05-18T03:41:29.418Z,13.70
2019-05-18T03:43:56.985Z,13.60
2019-05-18T03:46:24.399Z,13.50
2019-05-18T03:48:51.840Z,13.50
2019-05-18T03:51:19.402Z,13.40
2019-05-18T03:53:46.827Z,13.50
2019-05-18T03:56:14.327Z,13.80
2019-05-18T03:58:41.709Z,14.30
2019-05-18T04:01:09.106Z,14.80
2019-05-18T04:03:36.531Z,15.30
2019-05-18T04:06:03.927Z,15.70
2019-05-18T04:08:31.286Z,16.10
2019-05-18T04:10:58.693Z,16.30
2019-05-18T04:13:26.067Z,16.30
2019-05-18T04:15:53.509Z,16.00
2019-05-18T04:18:20.862Z,15.80
2019-05-18T04:20:48.295Z,15.40
2019-05-18T04:23:16.946Z,15.10
2019-05-18T04:25:44.372Z,15.00
2019-05-18T04:28:11.735Z,14.70
2019-05-18T04:30:39.183Z,14.50
2019-05-18T04:33:06.586Z,14.40
2019-05-18T04:35:33.955Z,14.30
2019-05-18T04:38:01.440Z,14.30
2019-05-18T04:40:28.986Z,14.20
2019-05-18T04:42:56.445Z,14.10
2019-05-18T04:45:23.837Z,14.00
2019-05-18T04:47:51.185Z,14.00
2019-05-18T04:50:18.657Z,14.00
2019-05-18T04:52:46.120Z,13.80
2019-05-18T04:55:13.505Z,13.80
2019-05-18T04:57:40.952Z,14.00
2019-05-18T05:00:08.366Z,14.60
2019-05-18T05:02:35.745Z,15.30
2019-05-18T05:05:03.508Z,15.90
2019-05-18T05:07:30.921Z,16.20
2019-05-18T05:09:58.301Z,16.50
2019-05-18T05:12:25.677Z,16.40
2019-05-18T05:14:52.926Z,16.20
2019-05-18T05:17:20.561Z,16.00
2019-05-18T05:19:47.978Z,15.90
2019-05-18T05:22:15.802Z,15.80
2019-05-18T05:24:43.144Z,15.50
2019-05-18T05:27:10.519Z,15.30
2019-05-18T05:29:37.901Z,15.00
2019-05-18T05:32:05.550Z,14.90
2019-05-18T05:34:33.241Z,14.80
2019-05-18T05:37:00.751Z,14.70
2019-05-18T05:39:28.190Z,14.60
2019-05-18T05:41:55.601Z,14.50
2019-05-18T05:44:23.018Z,14.40
2019-05-18T05:46:50.709Z,14.40
2019-05-18T05:49:18.131Z,14.40
2019-05-18T05:51:45.575Z,14.40
2019-05-18T05:54:13.142Z,14.50
2019-05-18T05:56:40.571Z,14.50
2019-05-18T05:59:07.939Z,14.50
2019-05-18T06:01:35.327Z,14.50
2019-05-18T06:04:02.732Z,14.60
2019-05-18T06:06:30.106Z,14.60
2019-05-18T06:08:57.741Z,14.70
2019-05-18T06:11:25.178Z,14.90
2019-05-18T06:13:52.701Z,15.20
2019-05-18T06:16:20.093Z,15.40
2019-05-18T06:18:47.464Z,15.70
2019-05-18T06:21:14.874Z,15.80
2019-05-18T06:23:42.258Z,15.70
2019-05-18T06:26:09.649Z,15.90
2019-05-18T06:28:37.012Z,16.00
2019-05-18T06:31:04.419Z,15.90
2019-05-18T06:33:31.851Z,15.90
2019-05-18T06:35:59.347Z,15.70
2019-05-18T06:38:26.851Z,15.60
2019-05-18T06:40:54.364Z,15.70
2019-05-18T06:43:22.030Z,15.70
2019-05-18T06:45:49.414Z,15.60
2019-05-18T06:48:19.453Z,15.70
2019-05-18T06:50:47.273Z,15.60
2019-05-18T06:53:14.645Z,15.60
2019-05-18T06:55:42.351Z,15.60
2019-05-18T06:58:10.040Z,15.60
2019-05-18T07:00:37.507Z,15.70
2019-05-18T07:03:04.952Z,15.90
2019-05-18T07:05:32.369Z,16.00
2019-05-18T07:07:59.754Z,16.10
2019-05-18T07:10:27.020Z,16.30
2019-05-18T07:12:54.413Z,16.40
2019-05-18T07:15:21.775Z,16.50
2019-05-18T07:17:49.152Z,16.60
2019-05-18T07:20:16.806Z,16.70
2019-05-18T07:22:44.296Z,16.80
2019-05-18T07:25:13.650Z,16.80
2019-05-18T07:27:41.106Z,17.10
2019-05-18T07:30:08.721Z,17.30
2019-05-18T07:32:36.504Z,17.30
2019-05-18T07:35:04.083Z,17.30
2019-05-18T07:37:31.471Z,17.40
2019-05-18T07:39:58.992Z,17.50
2019-05-18T07:42:26.353Z,17.60
2019-05-18T07:44:53.750Z,17.60
2019-05-18T07:47:21.141Z,17.70
2019-05-18T07:49:48.524Z,17.70
2019-05-18T07:52:17.341Z,17.70
2019-05-18T07:54:44.843Z,17.70
2019-05-18T07:57:12.257Z,17.80
2019-05-18T07:59:39.736Z,17.90
2019-05-18T08:02:06.996Z,17.80
2019-05-18T08:04:34.473Z,17.90
2019-05-18T08:07:01.915Z,18.00
2019-05-18T08:09:29.286Z,18.10
2019-05-18T08:11:56.681Z,18.10
2019-05-18T08:14:24.160Z,18.20
2019-05-18T08:17:01.363Z,18.00
2019-05-18T08:19:28.755Z,17.90
2019-05-18T08:21:58.812Z,17.90
2019-05-18T08:24:28.904Z,18.20
2019-05-18T08:26:56.327Z,18.50
2019-05-18T08:29:23.733Z,18.70
2019-05-18T08:31:51.098Z,18.60
2019-05-18T08:34:18.402Z,18.90
2019-05-18T08:36:47.964Z,19.10
2019-05-18T08:39:15.454Z,19.20
2019-05-18T08:41:42.858Z,19.20
2019-05-18T08:44:10.278Z,18.90
2019-05-18T08:46:37.656Z,18.70
2019-05-18T08:49:04.987Z,18.70
2019-05-18T08:51:32.369Z,18.50
2019-05-18T08:53:59.752Z,18.50
2019-05-18T08:56:27.170Z,18.60
2019-05-18T08:58:54.503Z,18.40
2019-05-18T09:01:21.892Z,18.50
2019-05-18T09:03:49.300Z,18.60
2019-05-18T09:06:16.739Z,18.60
2019-05-18T09:08:46.913Z,18.80
2019-05-18T09:11:14.433Z,19.00
2019-05-18T09:13:41.799Z,19.20
2019-05-18T09:16:09.253Z,19.30
2019-05-18T09:18:36.713Z,19.20
2019-05-18T09:21:04.063Z,19.30
2019-05-18T09:23:31.471Z,19.30
2019-05-18T09:25:58.869Z,19.50
2019-05-18T09:28:26.327Z,19.70
2019-05-18T09:30:53.751Z,19.80
2019-05-18T09:33:21.299Z,19.90
2019-05-18T09:35:48.659Z,19.60
2019-05-18T09:38:16.191Z,19.70
2019-05-18T09:40:43.580Z,19.50
2019-05-18T09:43:11.089Z,19.30
2019-05-18T09:45:38.469Z,19.20
2019-05-18T09:48:06.070Z,19.10
2019-05-18T09:50:33.471Z,19.20
2019-05-18T09:53:00.967Z,19.30
2019-05-18T09:55:28.342Z,19.30
2019-05-18T09:57:55.731Z,19.40
2019-05-18T10:00:23.188Z,19.30
2019-05-18T10:02:50.506Z,19.10
2019-05-18T10:05:18.112Z,19.10
2019-05-18T10:07:45.591Z,19.10
2019-05-18T10:10:13.142Z,19.30
2019-05-18T10:12:40.623Z,19.50
2019-05-18T10:15:08.248Z,19.60
2019-05-18T10:17:35.643Z,19.80
2019-05-18T10:20:03.166Z,19.90
2019-05-18T10:22:30.886Z,20.00
2019-05-18T10:24:58.332Z,20.30
2019-05-18T10:27:25.705Z,20.30
2019-05-18T10:29:53.217Z,20.20
2019-05-18T10:32:20.599Z,20.20
2019-05-18T10:34:48.079Z,20.10
2019-05-18T10:37:15.654Z,20.10
2019-05-18T10:39:42.966Z,20.20
2019-05-18T10:42:10.342Z,20.30
2019-05-18T10:44:37.724Z,20.30
2019-05-18T10:47:05.126Z,20.30
2019-05-18T10:49:32.514Z,20.20
2019-05-18T10:51:59.952Z,20.30
2019-05-18T10:54:27.420Z,20.30
2019-05-18T10:56:54.851Z,20.40
2019-05-18T10:59:22.200Z,20.40
2019-05-18T11:01:49.617Z,20.50
2019-05-18T11:04:17.553Z,20.60
2019-05-18T11:06:44.952Z,20.80
2019-05-18T11:09:12.356Z,21.00
2019-05-18T11:11:39.758Z,21.30
2019-05-18T11:14:07.171Z,21.30
2019-05-18T11:16:34.560Z,21.30
2019-05-18T11:19:01.985Z,21.20
2019-05-18T11:21:29.297Z,21.30
2019-05-18T11:23:56.685Z,21.20
2019-05-18T11:26:24.180Z,21.10
2019-05-18T11:28:51.659Z,21.00
2019-05-18T11:31:19.077Z,21.00
2019-05-18T11:33:46.488Z,21.10
2019-05-18T11:36:13.852Z,21.20
2019-05-18T11:38:41.230Z,21.30
2019-05-18T11:41:08.600Z,21.20
2019-05-18T11:43:36.067Z,21.30
2019-05-18T11:46:03.802Z,21.40
2019-05-18T11:48:31.449Z,21.30
2019-05-18T11:50:58.920Z,21.10
2019-05-18T11:53:26.323Z,21.10
2019-05-18T11:55:53.755Z,21.00
2019-05-18T11:58:21.139Z,21.00
2019-05-18T12:00:49.010Z,20.90
2019-05-18T12:03:16.716Z,20.90
2019-05-18T12:05:44.220Z,21.00
2019-05-18T12:08:11.727Z,21.10
2019-05-18T12:10:39.109Z,21.30
2019-05-18T12:13:06.501Z,21.70
2019-05-18T12:15:33.983Z,21.70
2019-05-18T12:18:01.383Z,21.80
2019-05-18T12:20:28.923Z,21.70
2019-05-18T12:22:56.296Z,21.60
2019-05-18T12:25:23.763Z,21.60
2019-05-18T12:27:51.200Z,21.50
2019-05-18T12:30:18.935Z,21.50
2019-05-18T12:32:46.326Z,21.60
2019-05-18T12:35:14.013Z,21.70
2019-05-18T12:37:41.385Z,21.70
2019-05-18T12:40:12.179Z,22.00
2019-05-18T12:42:39.543Z,22.30
2019-05-18T12:45:07.627Z,22.60
2019-05-18T12:47:35.056Z,22.70
2019-05-18T12:50:02.593Z,22.50
2019-05-18T12:52:30.012Z,22.30
2019-05-18T12:54:57.534Z,22.20
2019-05-18T12:57:24.905Z,22.20
2019-05-18T12:59:52.333Z,22.20
2019-05-18T13:02:19.744Z,22.30
2019-05-18T13:04:51.320Z,22.40
2019-05-18T13:07:18.719Z,22.50
2019-05-18T13:09:46.171Z,22.50
2019-05-18T13:12:15.262Z,22.50
2019-05-18T13:14:42.834Z,22.40
2019-05-18T13:17:10.227Z,22.40
2019-05-18T13:19:37.844Z,22.50
2019-05-18T13:22:05.248Z,22.40
2019-05-18T13:24:44.210Z,22.40
2019-05-18T13:27:02.010Z,22.50
2019-05-18T13:29:29.474Z,22.60
2019-05-18T13:31:56.898Z,22.50
2019-05-18T13:34:24.370Z,22.50
2019-05-18T13:36:51.896Z,22.50
2019-05-18T13:39:19.415Z,22.70
2019-05-18T13:41:46.965Z,22.80
2019-05-18T13:44:14.429Z,23.00
2019-05-18T13:46:41.820Z,23.10
2019-05-18T13:49:09.264Z,23.40
2019-05-18T13:51:36.698Z,23.50
2019-05-18T13:54:04.117Z,23.70
2019-05-18T13:56:31.558Z,23.90
2019-05-18T13:58:59.026Z,24.00
2019-05-18T14:01:26.403Z,24.00
2019-05-18T14:03:53.983Z,24.10
2019-05-18T14:06:21.402Z,24.20
2019-05-18T14:08:48.812Z,24.30
2019-05-18T14:11:16.299Z,24.30
2019-05-18T14:13:43.833Z,24.20
2019-05-18T14:16:11.234Z,24.40
2019-05-18T14:18:38.617Z,24.20
2019-05-18T14:21:06.013Z,24.20
2019-05-18T14:23:33.420Z,24.40
2019-05-18T14:26:00.860Z,24.20
2019-05-18T14:28:28.309Z,24.10
2019-05-18T14:30:55.818Z,23.70
2019-05-18T14:33:29.937Z,23.50
2019-05-18T14:35:57.371Z,23.30
2019-05-18T14:38:24.757Z,23.40
2019-05-18T14:40:52.163Z,23.30
2019-05-18T14:43:19.485Z,23.20
2019-05-18T14:45:49.082Z,23.20
2019-05-18T14:48:16.259Z,23.50
2019-05-18T14:50:43.642Z,23.60
2019-05-18T14:53:10.984Z,23.70
2019-05-18T14:55:38.304Z,23.60
2019-05-18T14:58:05.677Z,23.70
2019-05-18T15:00:33.133Z,23.80
2019-05-18T15:03:00.588Z,23.70
2019-05-18T15:05:28.080Z,23.50
2019-05-18T15:07:55.630Z,23.20
2019-05-18T15:10:23.009Z,23.10
2019-05-18T15:12:50.460Z,22.90
2019-05-18T15:15:19.533Z,22.80
2019-05-18T15:17:47.148Z,22.90
2019-05-18T15:20:14.754Z,23.00
2019-05-18T15:22:42.202Z,23.00
2019-05-18T15:25:09.882Z,23.20
2019-05-18T15:27:37.394Z,23.20
2019-05-18T15:30:04.887Z,23.10
2019-05-18T15:32:32.834Z,23.20
2019-05-18T15:35:00.219Z,23.10
2019-05-18T15:37:27.625Z,22.80
2019-05-18T15:39:55.009Z,22.40
2019-05-18T15:42:22.660Z,22.10
2019-05-18T15:44:50.065Z,22.00
2019-05-18T15:47:17.555Z,22.00
2019-05-18T15:49:44.916Z,22.00
2019-05-18T15:52:12.363Z,21.90
2019-05-18T15:54:39.861Z,21.90
2019-05-18T15:57:07.498Z,21.80
2019-05-18T15:59:34.971Z,21.90
2019-05-18T16:02:06.271Z,21.90
2019-05-18T16:04:31.909Z,21.90
2019-05-18T16:06:59.413Z,21.80
2019-05-18T16:09:26.874Z,21.60
2019-05-18T16:11:54.272Z,21.40
2019-05-18T16:14:21.542Z,21.20
2019-05-18T16:16:49.037Z,21.20
2019-05-18T16:19:16.606Z,21.20
2019-05-18T16:21:43.984Z,20.90
2019-05-18T16:24:11.221Z,20.90
2019-05-18T16:26:38.639Z,20.90
2019-05-18T16:29:06.033Z,20.90
2019-05-18T16:31:33.420Z,20.90
2019-05-18T16:34:00.798Z,21.00
2019-05-18T16:36:28.212Z,21.00
2019-05-18T16:38:55.647Z,21.00
2019-05-18T16:41:22.997Z,21.10
2019-05-18T16:43:50.426Z,21.20
2019-05-18T16:46:17.876Z,21.30
2019-05-18T16:48:45.305Z,21.20
2019-05-18T16:51:12.770Z,21.10
2019-05-18T16:53:40.155Z,21.10
2019-05-18T16:56:07.568Z,21.00
2019-05-18T16:58:34.986Z,20.90
2019-05-18T17:01:02.336Z,20.90
2019-05-18T17:03:31.808Z,20.70
2019-05-18T17:05:59.224Z,20.50
2019-05-18T17:08:26.649Z,20.30
2019-05-18T17:10:54.091Z,20.40
2019-05-18T17:13:21.482Z,20.50
2019-05-18T17:15:48.846Z,20.40
2019-05-18T17:18:16.519Z,20.50
2019-05-18T17:20:43.900Z,20.50
2019-05-18T17:23:11.310Z,20.50
2019-05-18T17:25:38.671Z,20.40
2019-05-18T17:28:06.054Z,20.60
2019-05-18T17:30:33.487Z,20.70
2019-05-18T17:33:00.844Z,20.60
2019-05-18T17:35:28.247Z,20.60
2019-05-18T17:37:55.730Z,20.50
2019-05-18T17:40:23.154Z,20.40
2019-05-18T17:42:50.582Z,20.20
2019-05-18T17:45:18.216Z,20.10
2019-05-18T17:47:45.609Z,20.10
2019-05-18T17:50:13.355Z,20.10
2019-05-18T17:52:40.740Z,20.10
2019-05-18T17:55:08.209Z,19.90
2019-05-18T17:57:35.681Z,19.80
2019-05-18T18:00:03.508Z,19.70
2019-05-18T18:02:30.760Z,19.70
2019-05-18T18:04:58.246Z,19.60
2019-05-18T18:07:25.613Z,19.50
2019-05-18T18:09:53.060Z,19.40
2019-05-18T18:12:21.633Z,19.40
2019-05-18T18:14:49.337Z,19.40
2019-05-18T18:17:17.817Z,19.40
2019-05-18T18:19:45.321Z,19.20
2019-05-18T18:22:12.662Z,19.10
2019-05-18T18:24:40.107Z,19.10
2019-05-18T18:27:07.485Z,19.00
2019-05-18T18:29:34.885Z,19.00
2019-05-18T18:32:02.385Z,19.00
2019-05-18T18:34:29.814Z,18.90
2019-05-18T18:36:57.159Z,18.90
2019-05-18T18:39:24.549Z,18.90
2019-05-18T18:41:52.007Z,18.80
2019-05-18T18:44:19.390Z,18.80
2019-05-18T18:46:46.919Z,18.80
2019-05-18T18:49:14.384Z,18.80
2019-05-18T18:51:41.811Z,18.70
2019-05-18T18:54:12.375Z,18.70
2019-05-18T18:56:40.221Z,18.60
2019-05-18T18:59:07.639Z,18.70
2019-05-18T19:01:35.018Z,18.60
2019-05-18T19:04:02.507Z,18.60
2019-05-18T19:06:29.993Z,18.60
2019-05-18T19:08:57.457Z,18.50
2019-05-18T19:11:24.924Z,18.40
2019-05-18T19:13:52.335Z,18.40
2019-05-18T19:16:19.877Z,18.40
2019-05-18T19:18:47.386Z,18.40
2019-05-18T19:21:14.818Z,18.40
2019-05-18T19:23:42.280Z,18.30
2019-05-18T19:26:09.663Z,18.40
2019-05-18T19:28:37.061Z,18.40
2019-05-18T19:31:04.511Z,18.40
2019-05-18T19:33:31.917Z,18.30
2019-05-18T19:35:59.378Z,18.20
2019-05-18T19:38:26.788Z,18.00
2019-05-18T19:40:54.214Z,17.80
2019-05-18T19:43:21.649Z,17.60
2019-05-18T19:45:49.480Z,17.30
2019-05-18T19:48:16.983Z,16.90
2019-05-18T19:50:44.390Z,16.00
2019-05-18T19:53:11.794Z,15.50
2019-05-18T19:55:39.221Z,15.30
2019-05-18T19:58:08.858Z,15.30
2019-05-18T20:00:35.746Z,15.30
2019-05-18T20:03:03.311Z,15.40
2019-05-18T20:05:30.746Z,15.40
2019-05-18T20:07:58.166Z,15.40
2019-05-18T20:10:25.550Z,15.50
2019-05-18T20:12:52.985Z,15.50
2019-05-18T20:15:20.430Z,15.60
2019-05-18T20:17:47.997Z,15.60
2019-05-18T20:20:17.409Z,15.60
2019-05-18T20:22:44.791Z,15.70
2019-05-18T20:25:12.283Z,15.70
2019-05-18T20:27:39.792Z,15.70
2019-05-18T20:30:09.773Z,15.70
2019-05-18T20:32:37.194Z,15.80
2019-05-18T20:35:06.383Z,15.60
2019-05-18T20:37:33.769Z,15.60
2019-05-18T20:40:01.190Z,15.50
2019-05-18T20:42:28.697Z,15.40
2019-05-18T20:44:56.079Z,15.40
2019-05-18T20:47:23.773Z,15.30
2019-05-18T20:49:51.488Z,15.20
2019-05-18T20:52:18.865Z,15.30
2019-05-18T20:54:46.461Z,15.40
2019-05-18T20:57:14.006Z,15.30
2019-05-18T20:59:41.403Z,15.20
2019-05-18T21:02:08.847Z,15.10
2019-05-18T21:04:36.253Z,14.90
2019-05-18T21:07:03.709Z,14.80
2019-05-18T21:09:31.113Z,14.80
2019-05-18T21:11:58.528Z,14.80
2019-05-18T21:14:25.953Z,14.70
2019-05-18T21:16:53.391Z,14.60
2019-05-18T21:19:20.745Z,14.50
2019-05-18T21:21:48.198Z,14.50
2019-05-18T21:24:15.587Z,14.50
2019-05-18T21:26:43.004Z,14.50
2019-05-18T21:29:10.449Z,14.60
2019-05-18T21:31:37.859Z,14.60
2019-05-18T21:34:05.225Z,14.70
2019-05-18T21:36:32.734Z,14.70
2019-05-18T21:39:00.147Z,14.70
2019-05-18T21:41:27.634Z,14.60
2019-05-18T21:43:55.286Z,14.60
2019-05-18T21:46:22.638Z,14.50
2019-05-18T21:48:50.048Z,14.60
2019-05-18T21:51:18.170Z,14.60
2019-05-18T21:53:45.580Z,14.60
2019-05-18T21:56:13.017Z,14.60
2019-05-18T21:58:40.423Z,14.50
2019-05-18T22:01:07.880Z,14.60
2019-05-18T22:03:35.272Z,14.70
2019-05-18T22:06:02.668Z,14.80
2019-05-18T22:08:30.115Z,14.80
2019-05-18T22:10:57.555Z,14.80
2019-05-18T22:13:25.010Z,14.80
2019-05-18T22:15:52.470Z,14.80
2019-05-18T22:18:24.630Z,14.80
2019-05-18T22:20:49.135Z,14.70
2019-05-18T22:23:16.636Z,14.70
2019-05-18T22:25:44.122Z,14.60
2019-05-18T22:28:11.488Z,14.50
2019-05-18T22:30:38.854Z,14.50
2019-05-18T22:33:06.342Z,14.50
2019-05-18T22:35:33.870Z,14.40
2019-05-18T22:38:01.302Z,14.40
2019-05-18T22:40:28.670Z,14.40
2019-05-18T22:42:56.063Z,14.30
2019-05-18T22:45:23.445Z,14.20
2019-05-18T22:47:50.826Z,14.10
2019-05-18T22:50:18.237Z,14.00
2019-05-18T22:52:45.624Z,13.90
2019-05-18T22:55:13.185Z,13.90
2019-05-18T22:57:40.618Z,13.80
2019-05-18T23:00:08.266Z,13.70
2019-05-18T23:02:35.700Z,13.60
2019-05-18T23:05:03.119Z,13.60
2019-05-18T23:07:30.531Z,13.60
2019-05-18T23:09:57.976Z,13.60
2019-05-18T23:12:25.364Z,13.30
2019-05-18T23:14:52.778Z,13.20
2019-05-18T23:17:20.230Z,13.30
2019-05-18T23:19:47.886Z,13.10
2019-05-18T23:22:15.273Z,12.90
2019-05-18T23:24:42.639Z,12.80
2019-05-18T23:27:09.995Z,12.70
2019-05-18T23:29:37.409Z,12.60
2019-05-18T23:32:04.825Z,12.70
2019-05-18T23:34:32.144Z,12.70
2019-05-18T23:36:59.528Z,12.60
2019-05-18T23:39:26.913Z,12.60
2019-05-18T23:41:54.357Z,12.60
2019-05-18T23:44:21.833Z,12.60
2019-05-18T23:46:49.214Z,12.60
2019-05-18T23:49:17.026Z,12.50
2019-05-18T23:51:44.453Z,12.60
2019-05-18T23:54:11.936Z,12.60
2019-05-18T23:56:39.299Z,12.60
2019-05-18T23:59:06.751Z,12.60
